sensor_id;sensor_type;location;lat;lon;timestamp;P1;durP1;ratioP1;P2;durP2;ratioP2
69246;SDS011;56358;56.328;43.992;2023-04-24T00:01:42;4.68;;;1.85;;
69246;SDS011;56358;56.328;43.992;2023-04-24T00:03:43;4.45;;;2.00;;
69246;SDS011;56358;56.328;43.992;2023-04-24T00:05:44;2.42;;;1.77;;
69246;SDS011;56358;56.328;43.992;2023-04-24T00:07:45;6.00;;;1.85;;
69246;SDS011;56358;56.328;43.992;2023-04-24T00:09:46;2.90;;;1.60;;
69246;SDS011;56358;56.328;43.992;2023-04-24T00:11:47;2.88;;;1.80;;
69246;SDS011;56358;56.328;43.992;2023-04-24T00:13:48;3.70;;;1.70;;
69246;SDS011;56358;56.328;43.992;2023-04-24T00:15:49;3.33;;;1.80;;
69246;SDS011;56358;56.328;43.992;2023-04-24T00:17:50;3.63;;;2.15;;
69246;SDS011;56358;56.328;43.992;2023-04-24T00:19:52;4.45;;;2.20;;
69246;SDS011;56358;56.328;43.992;2023-04-24T00:21:58;3.22;;;1.60;;
69246;SDS011;56358;56.328;43.992;2023-04-24T00:23:59;3.85;;;2.17;;
69246;SDS011;56358;56.328;43.992;2023-04-24T00:26:00;4.13;;;1.90;;
69246;SDS011;56358;56.328;43.992;2023-04-24T00:28:00;4.20;;;1.92;;
69246;SDS011;56358;56.328;43.992;2023-04-24T00:30:01;3.75;;;1.88;;
69246;SDS011;56358;56.328;43.992;2023-04-24T00:32:04;3.85;;;1.98;;
69246;SDS011;56358;56.328;43.992;2023-04-24T00:34:05;3.88;;;1.70;;
69246;SDS011;56358;56.328;43.992;2023-04-24T00:36:05;3.58;;;2.00;;
69246;SDS011;56358;56.328;43.992;2023-04-24T00:38:07;4.32;;;2.22;;
69246;SDS011;56358;56.328;43.992;2023-04-24T00:40:07;4.93;;;1.90;;
69246;SDS011;56358;56.328;43.992;2023-04-24T00:42:09;3.83;;;2.00;;
69246;SDS011;56358;56.328;43.992;2023-04-24T00:44:10;4.43;;;1.80;;
69246;SDS011;56358;56.328;43.992;2023-04-24T00:46:10;3.72;;;1.85;;
69246;SDS011;56358;56.328;43.992;2023-04-24T00:48:12;4.05;;;2.00;;
69246;SDS011;56358;56.328;43.992;2023-04-24T00:50:14;4.72;;;2.10;;
69246;SDS011;56358;56.328;43.992;2023-04-24T00:52:16;3.95;;;2.05;;
69246;SDS011;56358;56.328;43.992;2023-04-24T00:54:18;5.40;;;1.92;;
69246;SDS011;56358;56.328;43.992;2023-04-24T00:56:18;4.53;;;2.20;;
69246;SDS011;56358;56.328;43.992;2023-04-24T00:58:20;3.78;;;1.92;;
69246;SDS011;56358;56.328;43.992;2023-04-24T01:00:21;5.72;;;2.13;;
69246;SDS011;56358;56.328;43.992;2023-04-24T01:02:22;4.68;;;2.13;;
69246;SDS011;56358;56.328;43.992;2023-04-24T01:04:24;4.10;;;1.98;;
69246;SDS011;56358;56.328;43.992;2023-04-24T01:06:27;3.80;;;2.13;;
69246;SDS011;56358;56.328;43.992;2023-04-24T01:08:28;5.63;;;2.28;;
69246;SDS011;56358;56.328;43.992;2023-04-24T01:10:29;4.97;;;2.28;;
69246;SDS011;56358;56.328;43.992;2023-04-24T01:14:33;7.70;;;2.13;;
69246;SDS011;56358;56.328;43.992;2023-04-24T01:16:34;3.25;;;1.98;;
69246;SDS011;56358;56.328;43.992;2023-04-24T01:18:36;5.13;;;2.33;;
69246;SDS011;56358;56.328;43.992;2023-04-24T01:20:37;4.90;;;2.03;;
69246;SDS011;56358;56.328;43.992;2023-04-24T01:22:40;3.63;;;2.03;;
69246;SDS011;56358;56.328;43.992;2023-04-24T01:24:42;5.65;;;2.30;;
69246;SDS011;56358;56.328;43.992;2023-04-24T01:26:43;5.32;;;2.17;;
69246;SDS011;56358;56.328;43.992;2023-04-24T01:28:44;4.78;;;2.63;;
69246;SDS011;56358;56.328;43.992;2023-04-24T01:30:46;4.22;;;2.10;;
69246;SDS011;56358;56.328;43.992;2023-04-24T01:32:47;4.93;;;2.20;;
69246;SDS011;56358;56.328;43.992;2023-04-24T01:34:48;3.42;;;2.28;;
69246;SDS011;56358;56.328;43.992;2023-04-24T01:36:49;3.55;;;2.00;;
69246;SDS011;56358;56.328;43.992;2023-04-24T01:38:50;5.00;;;2.25;;
69246;SDS011;56358;56.328;43.992;2023-04-24T01:40:51;3.70;;;2.00;;
69246;SDS011;56358;56.328;43.992;2023-04-24T01:42:53;9.57;;;2.50;;
69246;SDS011;56358;56.328;43.992;2023-04-24T01:44:54;4.20;;;2.15;;
69246;SDS011;56358;56.328;43.992;2023-04-24T01:46:55;5.15;;;2.22;;
69246;SDS011;56358;56.328;43.992;2023-04-24T01:48:56;5.53;;;2.55;;
69246;SDS011;56358;56.328;43.992;2023-04-24T01:50:58;5.70;;;2.30;;
69246;SDS011;56358;56.328;43.992;2023-04-24T01:52:59;4.55;;;2.28;;
69246;SDS011;56358;56.328;43.992;2023-04-24T01:55:00;4.00;;;2.30;;
69246;SDS011;56358;56.328;43.992;2023-04-24T01:57:04;6.38;;;2.40;;
69246;SDS011;56358;56.328;43.992;2023-04-24T01:59:05;4.65;;;2.30;;
69246;SDS011;56358;56.328;43.992;2023-04-24T02:01:07;3.95;;;2.08;;
69246;SDS011;56358;56.328;43.992;2023-04-24T02:03:08;5.10;;;2.25;;
69246;SDS011;56358;56.328;43.992;2023-04-24T02:05:09;3.58;;;2.35;;
69246;SDS011;56358;56.328;43.992;2023-04-24T02:07:10;3.75;;;2.00;;
69246;SDS011;56358;56.328;43.992;2023-04-24T02:09:10;3.78;;;2.10;;
69246;SDS011;56358;56.328;43.992;2023-04-24T02:11:11;6.50;;;2.28;;
69246;SDS011;56358;56.328;43.992;2023-04-24T02:13:12;4.60;;;2.63;;
69246;SDS011;56358;56.328;43.992;2023-04-24T02:15:13;5.70;;;2.10;;
69246;SDS011;56358;56.328;43.992;2023-04-24T02:17:13;3.53;;;2.20;;
69246;SDS011;56358;56.328;43.992;2023-04-24T02:19:15;5.13;;;2.40;;
69246;SDS011;56358;56.328;43.992;2023-04-24T02:21:16;4.40;;;2.22;;
69246;SDS011;56358;56.328;43.992;2023-04-24T02:23:17;5.75;;;2.50;;
69246;SDS011;56358;56.328;43.992;2023-04-24T02:25:17;3.58;;;2.20;;
69246;SDS011;56358;56.328;43.992;2023-04-24T02:27:18;6.03;;;2.50;;
69246;SDS011;56358;56.328;43.992;2023-04-24T02:29:19;4.53;;;2.08;;
69246;SDS011;56358;56.328;43.992;2023-04-24T02:31:19;4.63;;;2.20;;
69246;SDS011;56358;56.328;43.992;2023-04-24T02:33:20;3.78;;;2.00;;
69246;SDS011;56358;56.328;43.992;2023-04-24T02:35:21;4.40;;;2.03;;
69246;SDS011;56358;56.328;43.992;2023-04-24T02:37:22;4.13;;;2.25;;
69246;SDS011;56358;56.328;43.992;2023-04-24T02:39:23;6.20;;;2.30;;
69246;SDS011;56358;56.328;43.992;2023-04-24T02:41:24;2.85;;;2.10;;
69246;SDS011;56358;56.328;43.992;2023-04-24T02:43:25;4.05;;;2.20;;
69246;SDS011;56358;56.328;43.992;2023-04-24T02:45:25;4.43;;;2.25;;
69246;SDS011;56358;56.328;43.992;2023-04-24T02:47:26;3.03;;;1.92;;
69246;SDS011;56358;56.328;43.992;2023-04-24T02:49:27;3.85;;;2.17;;
69246;SDS011;56358;56.328;43.992;2023-04-24T02:51:28;6.88;;;2.20;;
69246;SDS011;56358;56.328;43.992;2023-04-24T02:53:29;3.85;;;2.15;;
69246;SDS011;56358;56.328;43.992;2023-04-24T02:55:30;7.10;;;2.38;;
69246;SDS011;56358;56.328;43.992;2023-04-24T02:57:31;5.15;;;2.30;;
69246;SDS011;56358;56.328;43.992;2023-04-24T02:59:32;3.92;;;1.95;;
69246;SDS011;56358;56.328;43.992;2023-04-24T03:01:32;4.53;;;2.30;;
69246;SDS011;56358;56.328;43.992;2023-04-24T03:03:33;4.88;;;2.40;;
69246;SDS011;56358;56.328;43.992;2023-04-24T03:05:34;4.30;;;1.90;;
69246;SDS011;56358;56.328;43.992;2023-04-24T03:07:35;5.22;;;2.00;;
69246;SDS011;56358;56.328;43.992;2023-04-24T03:09:37;5.35;;;2.53;;
69246;SDS011;56358;56.328;43.992;2023-04-24T03:11:37;3.92;;;2.20;;
69246;SDS011;56358;56.328;43.992;2023-04-24T03:13:38;4.18;;;2.10;;
69246;SDS011;56358;56.328;43.992;2023-04-24T03:15:39;7.63;;;2.38;;
69246;SDS011;56358;56.328;43.992;2023-04-24T03:17:39;3.40;;;2.00;;
69246;SDS011;56358;56.328;43.992;2023-04-24T03:19:40;3.97;;;2.35;;
69246;SDS011;56358;56.328;43.992;2023-04-24T03:21:41;4.25;;;2.13;;
69246;SDS011;56358;56.328;43.992;2023-04-24T03:23:42;5.03;;;2.50;;
69246;SDS011;56358;56.328;43.992;2023-04-24T03:25:42;5.43;;;2.67;;
69246;SDS011;56358;56.328;43.992;2023-04-24T03:27:43;6.50;;;2.42;;
69246;SDS011;56358;56.328;43.992;2023-04-24T03:29:44;6.68;;;2.45;;
69246;SDS011;56358;56.328;43.992;2023-04-24T03:31:44;6.07;;;2.65;;
69246;SDS011;56358;56.328;43.992;2023-04-24T03:33:45;5.45;;;2.50;;
69246;SDS011;56358;56.328;43.992;2023-04-24T03:35:46;4.68;;;2.50;;
69246;SDS011;56358;56.328;43.992;2023-04-24T03:37:47;5.00;;;2.58;;
69246;SDS011;56358;56.328;43.992;2023-04-24T03:39:48;6.47;;;2.42;;
69246;SDS011;56358;56.328;43.992;2023-04-24T03:41:48;5.45;;;2.70;;
69246;SDS011;56358;56.328;43.992;2023-04-24T03:43:49;7.05;;;2.45;;
69246;SDS011;56358;56.328;43.992;2023-04-24T03:45:50;4.68;;;2.50;;
69246;SDS011;56358;56.328;43.992;2023-04-24T03:47:50;5.53;;;2.70;;
69246;SDS011;56358;56.328;43.992;2023-04-24T03:49:51;6.68;;;2.42;;
69246;SDS011;56358;56.328;43.992;2023-04-24T03:51:52;7.10;;;2.80;;
69246;SDS011;56358;56.328;43.992;2023-04-24T03:53:53;4.82;;;2.60;;
69246;SDS011;56358;56.328;43.992;2023-04-24T03:55:54;3.90;;;2.33;;
69246;SDS011;56358;56.328;43.992;2023-04-24T03:57:55;8.73;;;2.67;;
69246;SDS011;56358;56.328;43.992;2023-04-24T03:59:55;9.60;;;2.47;;
69246;SDS011;56358;56.328;43.992;2023-04-24T04:01:56;5.07;;;2.70;;
69246;SDS011;56358;56.328;43.992;2023-04-24T04:03:57;5.50;;;3.03;;
69246;SDS011;56358;56.328;43.992;2023-04-24T04:05:58;5.95;;;2.50;;
69246;SDS011;56358;56.328;43.992;2023-04-24T04:07:58;6.07;;;3.25;;
69246;SDS011;56358;56.328;43.992;2023-04-24T04:09:59;6.28;;;2.55;;
69246;SDS011;56358;56.328;43.992;2023-04-24T04:12:00;7.18;;;3.10;;
69246;SDS011;56358;56.328;43.992;2023-04-24T04:14:01;7.00;;;2.97;;
69246;SDS011;56358;56.328;43.992;2023-04-24T04:16:01;6.65;;;3.13;;
69246;SDS011;56358;56.328;43.992;2023-04-24T04:18:02;6.40;;;3.40;;
69246;SDS011;56358;56.328;43.992;2023-04-24T04:20:03;7.20;;;3.22;;
69246;SDS011;56358;56.328;43.992;2023-04-24T04:22:10;9.98;;;3.65;;
69246;SDS011;56358;56.328;43.992;2023-04-24T04:24:11;11.43;;;3.75;;
69246;SDS011;56358;56.328;43.992;2023-04-24T04:26:12;7.95;;;3.38;;
69246;SDS011;56358;56.328;43.992;2023-04-24T04:28:13;12.90;;;4.00;;
69246;SDS011;56358;56.328;43.992;2023-04-24T04:30:14;8.80;;;3.70;;
69246;SDS011;56358;56.328;43.992;2023-04-24T04:32:15;9.30;;;4.00;;
69246;SDS011;56358;56.328;43.992;2023-04-24T04:34:16;9.80;;;4.13;;
69246;SDS011;56358;56.328;43.992;2023-04-24T04:36:17;9.25;;;4.05;;
69246;SDS011;56358;56.328;43.992;2023-04-24T04:38:18;9.57;;;5.22;;
69246;SDS011;56358;56.328;43.992;2023-04-24T04:40:19;11.65;;;4.85;;
69246;SDS011;56358;56.328;43.992;2023-04-24T04:42:20;11.95;;;4.50;;
69246;SDS011;56358;56.328;43.992;2023-04-24T04:44:21;10.10;;;4.90;;
69246;SDS011;56358;56.328;43.992;2023-04-24T04:46:22;13.70;;;5.45;;
69246;SDS011;56358;56.328;43.992;2023-04-24T04:48:26;12.55;;;5.15;;
69246;SDS011;56358;56.328;43.992;2023-04-24T04:50:27;13.32;;;5.88;;
69246;SDS011;56358;56.328;43.992;2023-04-24T04:52:28;16.23;;;6.38;;
69246;SDS011;56358;56.328;43.992;2023-04-24T04:54:29;12.27;;;5.70;;
69246;SDS011;56358;56.328;43.992;2023-04-24T04:56:29;15.10;;;7.50;;
69246;SDS011;56358;56.328;43.992;2023-04-24T04:58:30;11.45;;;6.25;;
69246;SDS011;56358;56.328;43.992;2023-04-24T05:00:31;20.13;;;7.20;;
69246;SDS011;56358;56.328;43.992;2023-04-24T05:02:36;12.10;;;6.38;;
69246;SDS011;56358;56.328;43.992;2023-04-24T05:04:36;13.40;;;6.63;;
69246;SDS011;56358;56.328;43.992;2023-04-24T05:06:37;20.27;;;7.03;;
69246;SDS011;56358;56.328;43.992;2023-04-24T05:08:38;20.80;;;7.53;;
69246;SDS011;56358;56.328;43.992;2023-04-24T05:10:38;14.68;;;7.18;;
69246;SDS011;56358;56.328;43.992;2023-04-24T05:12:39;19.65;;;7.63;;
69246;SDS011;56358;56.328;43.992;2023-04-24T05:14:40;24.13;;;10.85;;
69246;SDS011;56358;56.328;43.992;2023-04-24T05:16:40;20.25;;;8.73;;
69246;SDS011;56358;56.328;43.992;2023-04-24T05:18:41;15.55;;;7.38;;
69246;SDS011;56358;56.328;43.992;2023-04-24T05:20:42;21.92;;;8.10;;
69246;SDS011;56358;56.328;43.992;2023-04-24T05:22:44;20.02;;;8.80;;
69246;SDS011;56358;56.328;43.992;2023-04-24T05:24:44;26.92;;;9.20;;
69246;SDS011;56358;56.328;43.992;2023-04-24T05:26:45;21.63;;;7.43;;
69246;SDS011;56358;56.328;43.992;2023-04-24T05:28:47;20.83;;;7.72;;
69246;SDS011;56358;56.328;43.992;2023-04-24T05:30:47;18.05;;;7.60;;
69246;SDS011;56358;56.328;43.992;2023-04-24T05:32:48;18.38;;;7.40;;
69246;SDS011;56358;56.328;43.992;2023-04-24T05:34:49;20.02;;;7.38;;
69246;SDS011;56358;56.328;43.992;2023-04-24T05:36:50;16.17;;;7.72;;
69246;SDS011;56358;56.328;43.992;2023-04-24T05:38:51;19.33;;;7.43;;
69246;SDS011;56358;56.328;43.992;2023-04-24T05:40:51;14.05;;;6.95;;
69246;SDS011;56358;56.328;43.992;2023-04-24T05:42:52;20.75;;;7.15;;
69246;SDS011;56358;56.328;43.992;2023-04-24T05:44:53;21.35;;;7.47;;
69246;SDS011;56358;56.328;43.992;2023-04-24T05:46:54;17.15;;;7.05;;
69246;SDS011;56358;56.328;43.992;2023-04-24T05:48:56;18.33;;;8.35;;
69246;SDS011;56358;56.328;43.992;2023-04-24T05:50:56;16.55;;;8.18;;
69246;SDS011;56358;56.328;43.992;2023-04-24T05:52:57;20.80;;;8.98;;
69246;SDS011;56358;56.328;43.992;2023-04-24T05:55:04;21.48;;;9.45;;
69246;SDS011;56358;56.328;43.992;2023-04-24T05:57:06;24.70;;;9.63;;
69246;SDS011;56358;56.328;43.992;2023-04-24T05:59:07;18.90;;;9.82;;
69246;SDS011;56358;56.328;43.992;2023-04-24T06:01:09;14.75;;;7.45;;
69246;SDS011;56358;56.328;43.992;2023-04-24T06:03:09;22.15;;;9.00;;
69246;SDS011;56358;56.328;43.992;2023-04-24T06:05:10;17.60;;;7.60;;
69246;SDS011;56358;56.328;43.992;2023-04-24T06:07:11;15.27;;;7.10;;
69246;SDS011;56358;56.328;43.992;2023-04-24T06:09:12;14.63;;;7.07;;
69246;SDS011;56358;56.328;43.992;2023-04-24T06:11:13;18.58;;;7.43;;
69246;SDS011;56358;56.328;43.992;2023-04-24T06:13:13;13.98;;;7.13;;
69246;SDS011;56358;56.328;43.992;2023-04-24T06:15:14;20.35;;;6.97;;
69246;SDS011;56358;56.328;43.992;2023-04-24T06:17:15;21.02;;;6.18;;
69246;SDS011;56358;56.328;43.992;2023-04-24T06:19:16;19.38;;;7.03;;
69246;SDS011;56358;56.328;43.992;2023-04-24T06:21:16;15.85;;;7.30;;
69246;SDS011;56358;56.328;43.992;2023-04-24T06:23:17;21.20;;;8.05;;
69246;SDS011;56358;56.328;43.992;2023-04-24T06:25:18;17.95;;;8.23;;
69246;SDS011;56358;56.328;43.992;2023-04-24T06:27:20;16.20;;;8.57;;
69246;SDS011;56358;56.328;43.992;2023-04-24T06:29:20;27.17;;;8.82;;
69246;SDS011;56358;56.328;43.992;2023-04-24T06:31:21;24.65;;;9.70;;
69246;SDS011;56358;56.328;43.992;2023-04-24T06:33:22;20.48;;;8.48;;
69246;SDS011;56358;56.328;43.992;2023-04-24T06:35:23;19.52;;;7.57;;
69246;SDS011;56358;56.328;43.992;2023-04-24T06:37:23;18.58;;;7.18;;
69246;SDS011;56358;56.328;43.992;2023-04-24T06:39:24;19.25;;;6.80;;
69246;SDS011;56358;56.328;43.992;2023-04-24T06:41:25;13.70;;;7.15;;
69246;SDS011;56358;56.328;43.992;2023-04-24T06:43:26;18.48;;;6.07;;
69246;SDS011;56358;56.328;43.992;2023-04-24T06:45:27;12.40;;;5.88;;
69246;SDS011;56358;56.328;43.992;2023-04-24T06:47:27;10.85;;;5.00;;
69246;SDS011;56358;56.328;43.992;2023-04-24T06:49:28;9.73;;;4.85;;
69246;SDS011;56358;56.328;43.992;2023-04-24T06:51:28;8.65;;;4.28;;
69246;SDS011;56358;56.328;43.992;2023-04-24T06:53:29;17.98;;;7.35;;
69246;SDS011;56358;56.328;43.992;2023-04-24T06:55:30;11.40;;;5.07;;
69246;SDS011;56358;56.328;43.992;2023-04-24T06:57:31;10.70;;;3.88;;
69246;SDS011;56358;56.328;43.992;2023-04-24T06:59:32;10.52;;;4.20;;
69246;SDS011;56358;56.328;43.992;2023-04-24T07:01:32;10.27;;;3.90;;
69246;SDS011;56358;56.328;43.992;2023-04-24T07:03:33;8.48;;;4.35;;
69246;SDS011;56358;56.328;43.992;2023-04-24T07:05:34;11.55;;;4.65;;
69246;SDS011;56358;56.328;43.992;2023-04-24T07:07:35;8.70;;;3.92;;
69246;SDS011;56358;56.328;43.992;2023-04-24T07:09:38;13.15;;;4.25;;
69246;SDS011;56358;56.328;43.992;2023-04-24T07:11:41;6.05;;;3.70;;
69246;SDS011;56358;56.328;43.992;2023-04-24T07:13:42;5.45;;;3.58;;
69246;SDS011;56358;56.328;43.992;2023-04-24T07:15:44;8.65;;;3.63;;
69246;SDS011;56358;56.328;43.992;2023-04-24T07:17:44;9.05;;;4.30;;
69246;SDS011;56358;56.328;43.992;2023-04-24T07:19:45;8.15;;;3.22;;
69246;SDS011;56358;56.328;43.992;2023-04-24T07:21:46;8.98;;;4.10;;
69246;SDS011;56358;56.328;43.992;2023-04-24T07:23:46;7.95;;;3.50;;
69246;SDS011;56358;56.328;43.992;2023-04-24T07:25:47;7.38;;;3.05;;
69246;SDS011;56358;56.328;43.992;2023-04-24T07:27:48;6.57;;;3.05;;
69246;SDS011;56358;56.328;43.992;2023-04-24T07:29:49;6.43;;;2.75;;
69246;SDS011;56358;56.328;43.992;2023-04-24T07:31:50;6.05;;;3.05;;
69246;SDS011;56358;56.328;43.992;2023-04-24T07:33:50;34.28;;;4.97;;
69246;SDS011;56358;56.328;43.992;2023-04-24T07:35:51;11.27;;;3.40;;
69246;SDS011;56358;56.328;43.992;2023-04-24T07:37:52;9.18;;;3.47;;
69246;SDS011;56358;56.328;43.992;2023-04-24T07:39:53;12.18;;;3.47;;
69246;SDS011;56358;56.328;43.992;2023-04-24T07:41:55;9.43;;;4.22;;
69246;SDS011;56358;56.328;43.992;2023-04-24T07:43:55;7.82;;;4.07;;
69246;SDS011;56358;56.328;43.992;2023-04-24T07:45:56;9.85;;;4.53;;
69246;SDS011;56358;56.328;43.992;2023-04-24T07:47:57;13.57;;;5.63;;
69246;SDS011;56358;56.328;43.992;2023-04-24T07:49:57;11.77;;;4.75;;
69246;SDS011;56358;56.328;43.992;2023-04-24T07:51:59;9.68;;;4.43;;
69246;SDS011;56358;56.328;43.992;2023-04-24T07:54:02;6.65;;;3.70;;
69246;SDS011;56358;56.328;43.992;2023-04-24T07:56:02;6.93;;;4.03;;
69246;SDS011;56358;56.328;43.992;2023-04-24T07:58:03;6.47;;;3.80;;
69246;SDS011;56358;56.328;43.992;2023-04-24T08:00:04;6.25;;;3.78;;
69246;SDS011;56358;56.328;43.992;2023-04-24T08:02:06;9.25;;;3.40;;
69246;SDS011;56358;56.328;43.992;2023-04-24T08:04:07;6.28;;;3.50;;
69246;SDS011;56358;56.328;43.992;2023-04-24T08:06:08;10.38;;;3.85;;
69246;SDS011;56358;56.328;43.992;2023-04-24T08:08:09;7.68;;;3.33;;
69246;SDS011;56358;56.328;43.992;2023-04-24T08:10:10;9.60;;;5.72;;
69246;SDS011;56358;56.328;43.992;2023-04-24T08:12:11;11.35;;;5.65;;
69246;SDS011;56358;56.328;43.992;2023-04-24T08:14:12;8.73;;;3.90;;
69246;SDS011;56358;56.328;43.992;2023-04-24T08:16:13;8.25;;;3.97;;
69246;SDS011;56358;56.328;43.992;2023-04-24T08:18:14;8.57;;;4.78;;
69246;SDS011;56358;56.328;43.992;2023-04-24T08:20:16;9.77;;;4.35;;
69246;SDS011;56358;56.328;43.992;2023-04-24T08:22:17;9.57;;;4.57;;
69246;SDS011;56358;56.328;43.992;2023-04-24T08:24:17;11.65;;;4.50;;
69246;SDS011;56358;56.328;43.992;2023-04-24T08:26:18;8.65;;;4.28;;
69246;SDS011;56358;56.328;43.992;2023-04-24T08:28:19;9.73;;;4.63;;
69246;SDS011;56358;56.328;43.992;2023-04-24T08:30:20;7.85;;;4.80;;
69246;SDS011;56358;56.328;43.992;2023-04-24T08:32:21;11.68;;;4.90;;
69246;SDS011;56358;56.328;43.992;2023-04-24T08:34:21;10.45;;;4.40;;
69246;SDS011;56358;56.328;43.992;2023-04-24T08:36:22;8.95;;;4.75;;
69246;SDS011;56358;56.328;43.992;2023-04-24T08:38:23;7.63;;;4.50;;
69246;SDS011;56358;56.328;43.992;2023-04-24T08:40:27;6.72;;;4.05;;
69246;SDS011;56358;56.328;43.992;2023-04-24T08:42:31;7.47;;;4.28;;
69246;SDS011;56358;56.328;43.992;2023-04-24T08:44:34;10.85;;;5.20;;
69246;SDS011;56358;56.328;43.992;2023-04-24T08:46:36;9.40;;;4.50;;
69246;SDS011;56358;56.328;43.992;2023-04-24T08:48:38;7.53;;;3.97;;
69246;SDS011;56358;56.328;43.992;2023-04-24T08:50:40;10.20;;;4.47;;
69246;SDS011;56358;56.328;43.992;2023-04-24T08:52:43;10.27;;;4.95;;
69246;SDS011;56358;56.328;43.992;2023-04-24T08:54:43;9.32;;;4.30;;
69246;SDS011;56358;56.328;43.992;2023-04-24T08:58:48;8.05;;;3.63;;
69246;SDS011;56358;56.328;43.992;2023-04-24T09:00:50;9.00;;;4.00;;
69246;SDS011;56358;56.328;43.992;2023-04-24T09:02:52;7.72;;;4.80;;
69246;SDS011;56358;56.328;43.992;2023-04-24T09:04:53;6.38;;;3.72;;
69246;SDS011;56358;56.328;43.992;2023-04-24T09:06:57;6.03;;;3.60;;
69246;SDS011;56358;56.328;43.992;2023-04-24T09:09:02;7.80;;;3.85;;
69246;SDS011;56358;56.328;43.992;2023-04-24T09:11:03;8.52;;;3.20;;
69246;SDS011;56358;56.328;43.992;2023-04-24T09:13:04;10.80;;;3.97;;
69246;SDS011;56358;56.328;43.992;2023-04-24T09:15:05;8.60;;;4.00;;
69246;SDS011;56358;56.328;43.992;2023-04-24T09:17:08;7.25;;;3.95;;
69246;SDS011;56358;56.328;43.992;2023-04-24T09:19:09;7.63;;;3.60;;
69246;SDS011;56358;56.328;43.992;2023-04-24T09:21:09;9.82;;;3.65;;
69246;SDS011;56358;56.328;43.992;2023-04-24T09:23:10;6.60;;;3.58;;
69246;SDS011;56358;56.328;43.992;2023-04-24T09:25:16;6.45;;;3.58;;
69246;SDS011;56358;56.328;43.992;2023-04-24T09:27:17;10.68;;;3.60;;
69246;SDS011;56358;56.328;43.992;2023-04-24T09:29:19;7.97;;;4.07;;
69246;SDS011;56358;56.328;43.992;2023-04-24T09:31:20;8.52;;;3.58;;
69246;SDS011;56358;56.328;43.992;2023-04-24T09:33:22;8.43;;;3.05;;
69246;SDS011;56358;56.328;43.992;2023-04-24T09:35:23;7.95;;;2.88;;
69246;SDS011;56358;56.328;43.992;2023-04-24T09:37:27;5.25;;;2.65;;
69246;SDS011;56358;56.328;43.992;2023-04-24T09:39:29;7.50;;;2.85;;
69246;SDS011;56358;56.328;43.992;2023-04-24T09:41:31;4.78;;;2.72;;
69246;SDS011;56358;56.328;43.992;2023-04-24T09:43:32;5.45;;;2.90;;
69246;SDS011;56358;56.328;43.992;2023-04-24T09:45:37;5.72;;;3.00;;
69246;SDS011;56358;56.328;43.992;2023-04-24T09:47:39;7.93;;;3.63;;
69246;SDS011;56358;56.328;43.992;2023-04-24T09:49:41;8.80;;;3.85;;
69246;SDS011;56358;56.328;43.992;2023-04-24T09:51:43;11.50;;;5.80;;
69246;SDS011;56358;56.328;43.992;2023-04-24T09:53:47;5.88;;;3.25;;
69246;SDS011;56358;56.328;43.992;2023-04-24T09:55:48;5.68;;;2.83;;
69246;SDS011;56358;56.328;43.992;2023-04-24T09:57:51;5.18;;;3.08;;
69246;SDS011;56358;56.328;43.992;2023-04-24T10:01:53;7.00;;;3.13;;
69246;SDS011;56358;56.328;43.992;2023-04-24T10:03:55;5.72;;;2.40;;
69246;SDS011;56358;56.328;43.992;2023-04-24T10:06:02;7.28;;;3.00;;
69246;SDS011;56358;56.328;43.992;2023-04-24T10:08:11;6.88;;;3.08;;
69246;SDS011;56358;56.328;43.992;2023-04-24T10:10:12;5.00;;;2.67;;
69246;SDS011;56358;56.328;43.992;2023-04-24T10:12:13;8.07;;;2.60;;
69246;SDS011;56358;56.328;43.992;2023-04-24T10:14:16;5.82;;;2.85;;
69246;SDS011;56358;56.328;43.992;2023-04-24T10:16:18;7.03;;;2.95;;
69246;SDS011;56358;56.328;43.992;2023-04-24T10:20:23;6.32;;;3.00;;
69246;SDS011;56358;56.328;43.992;2023-04-24T10:22:25;7.90;;;2.80;;
69246;SDS011;56358;56.328;43.992;2023-04-24T10:24:27;6.05;;;2.42;;
69246;SDS011;56358;56.328;43.992;2023-04-24T10:26:29;4.47;;;2.70;;
69246;SDS011;56358;56.328;43.992;2023-04-24T10:28:30;5.93;;;2.63;;
69246;SDS011;56358;56.328;43.992;2023-04-24T10:30:33;6.65;;;2.70;;
69246;SDS011;56358;56.328;43.992;2023-04-24T10:32:37;7.72;;;2.95;;
69246;SDS011;56358;56.328;43.992;2023-04-24T10:34:38;5.55;;;2.95;;
69246;SDS011;56358;56.328;43.992;2023-04-24T10:36:40;5.38;;;2.67;;
69246;SDS011;56358;56.328;43.992;2023-04-24T10:38:43;6.68;;;2.58;;
69246;SDS011;56358;56.328;43.992;2023-04-24T10:40:47;4.25;;;2.70;;
69246;SDS011;56358;56.328;43.992;2023-04-24T10:42:48;5.32;;;2.75;;
69246;SDS011;56358;56.328;43.992;2023-04-24T10:44:51;6.50;;;3.15;;
69246;SDS011;56358;56.328;43.992;2023-04-24T10:46:53;8.02;;;3.92;;
69246;SDS011;56358;56.328;43.992;2023-04-24T10:48:55;7.65;;;3.10;;
69246;SDS011;56358;56.328;43.992;2023-04-24T10:50:57;8.02;;;2.85;;
69246;SDS011;56358;56.328;43.992;2023-04-24T10:53:07;7.43;;;2.50;;
69246;SDS011;56358;56.328;43.992;2023-04-24T10:55:13;6.80;;;2.70;;
69246;SDS011;56358;56.328;43.992;2023-04-24T10:59:25;6.95;;;3.10;;
69246;SDS011;56358;56.328;43.992;2023-04-24T11:01:28;5.80;;;2.40;;
69246;SDS011;56358;56.328;43.992;2023-04-24T11:03:31;4.00;;;2.38;;
69246;SDS011;56358;56.328;43.992;2023-04-24T11:05:51;7.57;;;2.35;;
69246;SDS011;56358;56.328;43.992;2023-04-24T11:08:16;5.50;;;2.55;;
69246;SDS011;56358;56.328;43.992;2023-04-24T11:10:26;4.13;;;2.13;;
69246;SDS011;56358;56.328;43.992;2023-04-24T11:12:27;7.13;;;2.20;;
69246;SDS011;56358;56.328;43.992;2023-04-24T11:14:28;5.80;;;2.20;;
69246;SDS011;56358;56.328;43.992;2023-04-24T11:16:29;7.15;;;3.10;;
69246;SDS011;56358;56.328;43.992;2023-04-24T11:18:37;5.05;;;2.50;;
69246;SDS011;56358;56.328;43.992;2023-04-24T11:20:45;6.80;;;2.33;;
69246;SDS011;56358;56.328;43.992;2023-04-24T11:22:47;5.50;;;2.08;;
69246;SDS011;56358;56.328;43.992;2023-04-24T11:26:57;5.65;;;2.53;;
69246;SDS011;56358;56.328;43.992;2023-04-24T11:29:07;5.95;;;2.30;;
69246;SDS011;56358;56.328;43.992;2023-04-24T11:33:35;9.93;;;4.75;;
69246;SDS011;56358;56.328;43.992;2023-04-24T11:35:39;8.82;;;3.60;;
69246;SDS011;56358;56.328;43.992;2023-04-24T11:37:41;7.00;;;2.20;;
69246;SDS011;56358;56.328;43.992;2023-04-24T11:39:49;4.90;;;3.58;;
69246;SDS011;56358;56.328;43.992;2023-04-24T11:41:51;9.65;;;6.70;;
69246;SDS011;56358;56.328;43.992;2023-04-24T11:43:52;9.45;;;4.47;;
69246;SDS011;56358;56.328;43.992;2023-04-24T11:45:54;6.35;;;2.20;;
69246;SDS011;56358;56.328;43.992;2023-04-24T11:47:55;4.68;;;2.85;;
69246;SDS011;56358;56.328;43.992;2023-04-24T11:49:57;5.47;;;2.35;;
69246;SDS011;56358;56.328;43.992;2023-04-24T11:52:01;7.00;;;2.65;;
69246;SDS011;56358;56.328;43.992;2023-04-24T11:54:07;4.32;;;2.17;;
69246;SDS011;56358;56.328;43.992;2023-04-24T11:56:10;5.40;;;1.88;;
69246;SDS011;56358;56.328;43.992;2023-04-24T11:58:11;3.75;;;2.40;;
69246;SDS011;56358;56.328;43.992;2023-04-24T12:00:22;3.38;;;2.50;;
69246;SDS011;56358;56.328;43.992;2023-04-24T12:02:25;5.07;;;2.40;;
69246;SDS011;56358;56.328;43.992;2023-04-24T12:04:27;9.05;;;2.63;;
69246;SDS011;56358;56.328;43.992;2023-04-24T12:06:40;5.30;;;2.33;;
69246;SDS011;56358;56.328;43.992;2023-04-24T12:08:59;6.82;;;2.53;;
69246;SDS011;56358;56.328;43.992;2023-04-24T12:11:00;5.45;;;2.80;;
69246;SDS011;56358;56.328;43.992;2023-04-24T12:13:01;10.63;;;4.10;;
69246;SDS011;56358;56.328;43.992;2023-04-24T12:15:06;6.35;;;3.15;;